< < Back
Terminal Aerodrome Forecast


Current Version              Previous Versions:   1  2  3  4  5  6  7  8  9  

Terminal Aerodrome Forecast

452
FTUS42 KTAE 260535
TAFDHN
TAF
KDHN 260535Z 2606/2706 VRB03KT P6SM SCT250
     FM261500 18006KT P6SM SCT060 SCT250
     FM270100 VRB03KT P6SM SCT250=

Latest METAR

240
SAUS70 KWBC 270000 RRA
MTRDHN
METAR KDHN 262353Z 13004KT 10SM SCT055 BKN095 29/17 A3008 RMK AO2 SLP181
T02890172 10317 20289 56008


USA.gov is the U.S. government's official web portal to all federal, state and local government web resources and services.